Time;durP1;ratioP1;P1;durP2;ratioP2;P2;SDS_P1;SDS_P2;PMS_P1;PMS_P2;Temp;Humidity;BMP_temperature;BMP_pressure;BME280_temperature;BME280_humidity;BME280_pressure;Samples;Min_cycle;Max_cycle;Signal;HPM_P1;HPM_P2
2021/10/07 00:00:26;;;;;;;31.02;20.73;;;;;;;14.65;74.38;100918.56;5114574;28;20508;-64
2021/10/07 00:02:54;;;;;;;29.42;20.08;;;;;;;14.61;74.35;100912.81;5112925;28;20048;-64
2021/10/07 00:05:21;;;;;;;28.00;20.27;;;;;;;14.62;73.98;100919.25;5114118;28;20429;-65
2021/10/07 00:07:48;;;;;;;32.20;19.65;;;;;;;14.57;73.96;100925.00;5115511;28;20075;-64
2021/10/07 00:10:16;;;;;;;31.48;19.92;;;;;;;14.48;74.34;100924.97;5114421;28;20056;-65
2021/10/07 00:12:43;;;;;;;33.13;20.52;;;;;;;14.51;74.46;100934.69;5113457;28;20511;-65
2021/10/07 00:15:11;;;;;;;33.13;21.25;;;;;;;14.50;74.68;100931.06;5112916;28;20059;-65
2021/10/07 00:17:40;;;;;;;31.80;20.67;;;;;;;14.55;74.72;100941.31;5114459;28;20355;-65
2021/10/07 00:20:10;;;;;;;32.05;20.42;;;;;;;14.58;74.88;100941.50;5115136;28;20074;-65
2021/10/07 00:22:39;;;;;;;28.48;19.70;;;;;;;14.63;75.02;100936.88;5105296;28;20064;-65
2021/10/07 00:25:08;;;;;;;32.28;20.25;;;;;;;14.66;75.40;100944.63;5110490;28;20055;-65
2021/10/07 00:27:36;;;;;;;31.77;20.63;;;;;;;14.66;75.20;100947.41;5115315;28;20058;-65
2021/10/07 00:30:08;;;;;;;33.45;21.02;;;;;;;14.69;75.14;100946.78;5114646;28;20070;-65
2021/10/07 00:32:38;;;;;;;30.25;20.27;;;;;;;14.71;75.11;100956.50;5112390;28;20493;-65
2021/10/07 00:35:23;;;;;;;31.48;20.42;;;;;;;14.75;74.96;100951.06;5114213;28;20055;-65
2021/10/07 00:40:35;;;;;;;32.42;19.95;;;;;;;14.79;75.04;100957.66;5114916;28;20051;-65
2021/10/07 00:43:02;;;;;;;29.95;20.65;;;;;;;14.79;74.84;100954.84;5113326;28;20048;-65
2021/10/07 00:45:32;;;;;;;28.70;19.52;;;;;;;14.81;74.86;100955.34;5101215;28;20504;-65
2021/10/07 00:48:00;;;;;;;30.77;20.45;;;;;;;14.84;74.75;100959.47;5114247;28;20055;-65
2021/10/07 00:50:29;;;;;;;31.77;20.25;;;;;;;14.82;74.36;100959.78;5093858;28;20056;-65
2021/10/07 00:52:56;;;;;;;29.65;21.63;;;;;;;14.79;74.37;100957.66;5093843;28;20063;-65
2021/10/07 00:55:24;;;;;;;32.95;20.77;;;;;;;14.74;74.45;100957.81;5094145;28;20048;-65
2021/10/07 00:57:51;;;;;;;32.95;21.30;;;;;;;14.72;74.14;100965.72;5093725;28;20055;-65
2021/10/07 01:00:19;;;;;;;32.53;21.60;;;;;;;14.68;73.98;100961.94;5093796;28;20048;-65
2021/10/07 01:02:46;;;;;;;33.95;21.67;;;;;;;14.68;74.03;100967.53;5097151;28;20055;-65
2021/10/07 01:05:13;;;;;;;33.90;22.27;;;;;;;14.65;74.03;100968.22;5095398;28;20059;-65
2021/10/07 01:07:42;;;;;;;31.13;21.70;;;;;;;14.59;74.14;100970.34;5094076;28;20052;-65
2021/10/07 01:10:10;;;;;;;36.10;22.13;;;;;;;14.53;74.01;100971.63;5102252;28;20044;-65
2021/10/07 01:12:37;;;;;;;35.28;23.02;;;;;;;14.40;74.27;100968.69;5100735;28;20493;-65
2021/10/07 01:15:06;;;;;;;37.30;23.38;;;;;;;14.34;74.45;100969.16;5097986;28;20052;-65
2021/10/07 01:17:36;;;;;;;40.08;22.90;;;;;;;14.34;74.96;100974.75;5093463;28;20056;-65
2021/10/07 01:20:07;;;;;;;34.50;22.45;;;;;;;14.36;75.28;100983.66;5093707;28;20524;-65
2021/10/07 01:22:34;;;;;;;35.17;22.75;;;;;;;14.37;75.16;100983.34;5093514;28;20052;-64
2021/10/07 01:25:02;;;;;;;35.40;22.92;;;;;;;14.41;74.90;100991.94;5095835;28;20056;-64
2021/10/07 01:27:31;;;;;;;34.10;22.35;;;;;;;14.39;75.10;100985.81;5095505;28;20070;-64
2021/10/07 01:30:01;;;;;;;30.35;20.27;;;;;;;14.44;75.10;100990.44;5093821;28;20060;-64
2021/10/07 01:32:29;;;;;;;38.25;22.98;;;;;;;14.41;75.17;100989.13;5100347;28;20052;-64
2021/10/07 01:34:56;;;;;;;38.20;21.98;;;;;;;14.46;75.20;101000.16;5093477;28;20063;-64
2021/10/07 01:37:25;;;;;;;35.50;22.40;;;;;;;14.47;74.93;100999.03;5093084;28;20063;-64
2021/10/07 01:39:52;;;;;;;35.58;21.55;;;;;;;14.52;74.73;100998.03;5097347;28;20062;-64
2021/10/07 01:42:19;;;;;;;31.67;21.15;;;;;;;14.51;74.66;100991.63;5101053;28;20067;-64
2021/10/07 01:44:46;;;;;;;33.67;21.75;;;;;;;14.47;74.67;100999.03;5093724;28;20052;-64
2021/10/07 01:47:14;;;;;;;35.90;22.67;;;;;;;14.35;75.05;101010.03;5093726;28;20358;-64
2021/10/07 01:49:41;;;;;;;33.03;21.45;;;;;;;14.40;74.63;100999.53;5094359;28;20527;-64
2021/10/07 01:52:09;;;;;;;34.13;22.02;;;;;;;14.37;74.30;100996.53;5092719;28;20508;-64
2021/10/07 01:54:38;;;;;;;38.17;23.02;;;;;;;14.26;73.99;101001.63;5095948;28;20500;-64
2021/10/07 01:57:06;;;;;;;40.60;24.07;;;;;;;14.19;73.68;101007.72;5098264;28;20417;-64
2021/10/07 01:59:33;;;;;;;47.25;25.13;;;;;;;14.05;73.89;101009.81;5093050;28;20059;-64
2021/10/07 02:02:00;;;;;;;48.13;25.98;;;;;;;13.93;73.72;101012.41;5093526;28;20055;-64
2021/10/07 02:04:27;;;;;;;53.17;26.02;;;;;;;13.80;73.95;101014.16;5105158;28;20059;-64
2021/10/07 02:06:55;;;;;;;50.20;27.35;;;;;;;13.69;73.79;101012.78;5113908;28;20063;-64
2021/10/07 02:09:22;;;;;;;57.15;27.05;;;;;;;13.58;74.12;101023.44;5111354;28;20048;-64
2021/10/07 02:11:51;;;;;;;57.95;27.45;;;;;;;13.47;74.37;101019.28;5100837;28;20062;-64
2021/10/07 02:14:18;;;;;;;53.53;26.70;;;;;;;13.39;74.49;101023.66;5092258;28;20063;-64
2021/10/07 02:16:46;;;;;;;64.88;28.13;;;;;;;13.31;74.48;101025.28;5092957;28;20060;-64
2021/10/07 02:19:13;;;;;;;72.78;29.95;;;;;;;13.24;74.77;101033.25;5092313;28;20052;-64
2021/10/07 02:21:40;;;;;;;66.40;29.73;;;;;;;13.16;75.16;101029.22;5102514;28;20083;-64
2021/10/07 02:24:08;;;;;;;70.80;29.20;;;;;;;13.09;75.06;101036.44;5097221;28;20070;-64
2021/10/07 02:26:35;;;;;;;66.15;29.05;;;;;;;13.01;75.41;101035.22;5092655;28;20437;-64
2021/10/07 02:29:05;;;;;;;72.18;29.42;;;;;;;12.95;75.33;101042.06;5094180;28;20052;-64
2021/10/07 02:31:32;;;;;;;60.47;27.58;;;;;;;12.85;75.27;101039.53;5101433;28;20478;-64
2021/10/07 02:34:00;;;;;;;65.05;29.15;;;;;;;12.75;75.18;101041.44;5104038;28;20065;-64
2021/10/07 02:36:27;;;;;;;72.72;30.23;;;;;;;12.64;75.09;101047.56;5092630;28;20512;-64
2021/10/07 02:38:55;;;;;;;71.65;30.70;;;;;;;12.54;75.33;101049.44;5093093;28;20417;-64
2021/10/07 02:41:22;;;;;;;69.15;29.25;;;;;;;12.50;75.40;101044.81;5092179;28;20059;-64
2021/10/07 02:43:50;;;;;;;63.67;28.30;;;;;;;12.43;74.95;101059.22;5091898;28;20493;-64
2021/10/07 02:46:18;;;;;;;62.33;28.38;;;;;;;12.34;75.35;101055.47;5092418;28;20052;-64
2021/10/07 02:48:46;;;;;;;72.33;31.23;;;;;;;12.23;75.43;101051.25;5092661;28;20474;-64
2021/10/07 02:51:13;;;;;;;70.40;28.77;;;;;;;12.13;75.48;101057.88;5106634;28;20508;-64
2021/10/07 02:53:40;;;;;;;67.43;29.08;;;;;;;12.04;75.65;101057.78;5102251;28;20074;-64
2021/10/07 02:56:08;;;;;;;71.70;29.05;;;;;;;11.99;75.81;101057.88;5092443;28;20505;-64
2021/10/07 02:58:36;;;;;;;84.47;29.52;;;;;;;11.93;76.16;101061.91;5105424;28;20063;-64
2021/10/07 03:01:04;;;;;;;89.07;30.92;;;;;;;11.81;76.48;101062.38;5114335;28;20455;-64
2021/10/07 03:03:33;;;;;;;79.40;31.33;;;;;;;11.77;76.66;101073.31;5112067;28;20425;-64
2021/10/07 03:06:00;;;;;;;70.63;27.77;;;;;;;11.75;76.51;101081.16;5096566;28;20056;-64
2021/10/07 03:08:28;;;;;;;79.60;29.67;;;;;;;11.72;76.57;101076.22;5096301;28;20060;-64
2021/10/07 03:10:56;;;;;;;94.65;32.13;;;;;;;11.68;76.91;101088.31;5102427;28;20056;-64
2021/10/07 03:13:24;;;;;;;75.30;29.77;;;;;;;11.69;77.41;101087.16;5095992;28;20051;-64
2021/10/07 03:15:51;;;;;;;71.38;28.10;;;;;;;11.64;77.30;101090.88;5099873;28;20413;-64
2021/10/07 03:18:19;;;;;;;69.28;28.85;;;;;;;11.67;77.25;101093.03;5095685;28;20052;-64
2021/10/07 03:20:48;;;;;;;64.45;26.75;;;;;;;11.67;77.54;101098.63;5096131;28;20056;-64
2021/10/07 03:23:15;;;;;;;59.63;26.33;;;;;;;11.70;77.40;101098.03;5095198;28;20055;-64
2021/10/07 03:25:43;;;;;;;68.57;28.50;;;;;;;11.72;77.63;101100.50;5098774;28;20369;-64
2021/10/07 03:28:10;;;;;;;61.50;26.48;;;;;;;11.72;77.14;101106.91;5095221;28;20482;-65
2021/10/07 03:30:37;;;;;;;63.28;26.98;;;;;;;11.69;77.18;101107.50;5095792;28;20056;-65
2021/10/07 03:33:06;;;;;;;59.15;25.38;;;;;;;11.68;77.35;101111.44;5103037;28;20052;-64
2021/10/07 03:35:34;;;;;;;73.07;27.38;;;;;;;11.73;77.39;101113.31;5109879;28;20610;-64
2021/10/07 03:38:03;;;;;;;59.28;25.83;;;;;;;11.76;77.51;101113.53;5116168;28;20499;-64
2021/10/07 03:40:30;;;;;;;57.28;25.17;;;;;;;11.82;77.69;101119.84;5114716;28;20150;-65
2021/10/07 03:42:58;;;;;;;64.82;27.10;;;;;;;11.85;77.51;101119.25;5095945;28;20059;-64
2021/10/07 03:45:25;;;;;;;56.80;25.60;;;;;;;11.87;77.46;101121.75;5095593;28;20420;-64
2021/10/07 03:47:52;;;;;;;63.72;26.30;;;;;;;11.89;77.36;101123.09;5095674;28;20048;-65
2021/10/07 03:50:20;;;;;;;56.03;26.40;;;;;;;11.90;77.46;101126.72;5095766;28;20056;-64
2021/10/07 03:52:49;;;;;;;55.67;25.65;;;;;;;11.91;77.17;101120.84;5105827;28;20051;-64
2021/10/07 03:55:21;;;;;;;54.10;25.65;;;;;;;11.90;77.27;101137.88;5107017;28;20513;-64
2021/10/07 03:57:48;;;;;;;58.63;25.20;;;;;;;11.90;77.17;101135.91;5108688;28;20062;-64
2021/10/07 04:00:16;;;;;;;63.33;26.98;;;;;;;11.89;77.16;101133.47;5115785;28;20051;-64
2021/10/07 04:02:43;;;;;;;58.97;26.23;;;;;;;11.83;77.42;101140.22;5113515;28;20055;-64
2021/10/07 04:05:11;;;;;;;61.03;26.55;;;;;;;11.82;76.97;101138.56;5112807;28;20051;-64
2021/10/07 04:07:38;;;;;;;63.45;26.23;;;;;;;11.80;76.94;101150.06;5107579;28;20078;-64
2021/10/07 04:10:07;;;;;;;59.50;25.85;;;;;;;11.75;76.69;101144.53;5114257;28;20060;-64
2021/10/07 04:12:36;;;;;;;72.57;27.20;;;;;;;11.70;76.99;101148.25;5097514;28;20061;-64
2021/10/07 04:15:04;;;;;;;69.68;26.55;;;;;;;11.65;76.61;101148.31;5095491;28;20471;-64
2021/10/07 04:17:31;;;;;;;76.82;27.73;;;;;;;11.58;76.67;101150.69;5095232;28;20051;-64
2021/10/07 04:19:59;;;;;;;74.00;28.35;;;;;;;11.53;77.28;101148.81;5095070;28;20063;-64
2021/10/07 04:22:26;;;;;;;84.82;29.98;;;;;;;11.47;77.18;101155.63;5106387;28;20058;-64
2021/10/07 04:24:54;;;;;;;74.45;27.92;;;;;;;11.47;77.15;101163.97;5105008;28;20059;-64
2021/10/07 04:27:22;;;;;;;70.72;28.15;;;;;;;11.42;77.03;101164.03;5094798;28;20067;-64
2021/10/07 04:29:50;;;;;;;65.47;25.83;;;;;;;11.43;76.54;101162.13;5094523;28;20060;-64
2021/10/07 04:32:18;;;;;;;67.28;25.80;;;;;;;11.40;76.74;101165.50;5094445;28;20052;-64
2021/10/07 04:34:46;;;;;;;59.38;25.83;;;;;;;11.34;77.23;101171.16;5094018;28;20067;-64
2021/10/07 04:37:14;;;;;;;64.75;27.50;;;;;;;11.33;76.96;101163.91;5094535;28;20059;-64
2021/10/07 04:39:42;;;;;;;76.13;31.02;;;;;;;11.30;77.05;101164.53;5094477;28;20059;-64
2021/10/07 04:42:12;;;;;;;61.15;25.95;;;;;;;11.30;76.89;101172.91;5094072;28;20067;-64
2021/10/07 04:44:40;;;;;;;58.30;25.38;;;;;;;11.28;77.33;101185.50;5094305;28;20048;-64
2021/10/07 04:47:08;;;;;;;58.95;25.00;;;;;;;11.25;77.62;101194.44;5100080;28;20047;-64
2021/10/07 04:49:36;;;;;;;69.43;27.07;;;;;;;11.28;77.51;101194.69;5114993;28;20055;-64
2021/10/07 04:52:04;;;;;;;63.67;26.08;;;;;;;11.31;78.29;101194.06;5108210;28;20579;-64
2021/10/07 04:54:31;;;;;;;57.08;25.13;;;;;;;11.35;78.24;101192.31;5098082;28;20504;-64
2021/10/07 04:56:58;;;;;;;60.00;25.80;;;;;;;11.38;78.37;101188.94;5114238;28;20051;-64
2021/10/07 04:59:26;;;;;;;56.03;25.58;;;;;;;11.44;78.51;101189.69;5112200;28;20543;-64
2021/10/07 05:01:53;;;;;;;53.92;24.48;;;;;;;11.47;78.63;101188.28;5103737;28;20048;-64
2021/10/07 05:04:22;;;;;;;78.20;29.13;;;;;;;11.52;78.57;101191.78;5093466;28;20060;-64
2021/10/07 05:06:49;;;;;;;61.40;26.67;;;;;;;11.47;78.85;101191.06;5094050;28;20486;-64
2021/10/07 05:09:17;;;;;;;68.25;27.02;;;;;;;11.53;78.50;101195.44;5093553;28;20951;-64
2021/10/07 05:11:45;;;;;;;53.70;23.25;;;;;;;11.56;78.39;101211.56;5099796;28;20048;-66
2021/10/07 05:14:12;;;;;;;50.95;22.80;;;;;;;11.56;78.22;101206.78;5096324;28;20047;-64
2021/10/07 05:16:40;;;;;;;49.28;22.70;;;;;;;11.63;77.58;101209.19;5095079;28;20056;-63
2021/10/07 05:19:07;;;;;;;57.75;24.55;;;;;;;11.66;77.11;101214.19;5099828;28;20126;-63
2021/10/07 05:21:39;;;;;;;55.13;23.95;;;;;;;11.67;77.12;101221.41;5098360;28;20402;-65
2021/10/07 05:24:07;;;;;;;56.45;24.92;;;;;;;11.56;77.35;101217.13;5093760;28;20051;-64
2021/10/07 05:26:34;;;;;;;59.45;25.75;;;;;;;11.50;77.70;101216.38;5098286;28;20516;-65
2021/10/07 05:29:01;;;;;;;54.75;24.10;;;;;;;11.48;77.53;101221.41;5093263;28;20052;-65
2021/10/07 05:31:29;;;;;;;58.60;25.30;;;;;;;11.47;77.18;101225.34;5096579;28;20070;-65
2021/10/07 05:33:56;;;;;;;57.00;24.95;;;;;;;11.44;77.47;101228.72;5093304;28;20052;-65
2021/10/07 05:36:24;;;;;;;61.33;25.30;;;;;;;11.47;77.34;101238.50;5095384;28;20063;-65
2021/10/07 05:38:52;;;;;;;51.67;25.05;;;;;;;11.45;77.26;101232.38;5094592;28;21033;-65
2021/10/07 05:41:20;;;;;;;54.30;23.45;;;;;;;11.44;77.53;101236.28;5095870;28;20052;-65
2021/10/07 05:43:47;;;;;;;53.10;23.60;;;;;;;11.40;77.66;101235.22;5091612;28;20052;-65
2021/10/07 05:46:15;;;;;;;52.22;23.90;;;;;;;11.36;77.88;101241.41;5094318;28;20059;-65
2021/10/07 05:48:42;;;;;;;57.05;25.10;;;;;;;11.43;77.78;101243.00;5096423;28;20151;-65
2021/10/07 05:51:10;;;;;;;50.78;24.52;;;;;;;11.49;77.80;101250.19;5101182;28;20064;-65
2021/10/07 05:53:37;;;;;;;55.38;24.92;;;;;;;11.55;77.50;101252.59;5104103;28;20043;-64
2021/10/07 05:56:06;;;;;;;51.28;24.10;;;;;;;11.60;77.10;101254.47;5104387;28;20078;-65
2021/10/07 05:58:34;;;;;;;46.05;22.92;;;;;;;11.66;77.10;101253.25;5102500;28;20066;-65
2021/10/07 06:01:01;;;;;;;47.53;24.15;;;;;;;11.71;76.90;101252.34;5112408;28;20501;-65
2021/10/07 06:03:28;;;;;;;49.95;24.88;;;;;;;11.77;77.34;101260.31;5101104;28;20079;-64
2021/10/07 06:05:56;;;;;;;58.08;28.35;;;;;;;11.89;77.84;101262.69;5092358;28;20067;-64
2021/10/07 06:08:23;;;;;;;51.15;24.17;;;;;;;11.96;77.90;101271.50;5092652;28;20402;-64
2021/10/07 06:10:50;;;;;;;50.85;24.98;;;;;;;12.03;77.97;101276.69;5092941;28;20096;-64
2021/10/07 06:13:19;;;;;;;47.88;23.20;;;;;;;12.09;77.63;101280.22;5096267;28;20052;-64
2021/10/07 06:15:48;;;;;;;50.83;23.55;;;;;;;12.18;77.91;101278.41;5102864;28;20055;-64
2021/10/07 06:18:16;;;;;;;42.05;21.67;;;;;;;12.29;77.69;101281.88;5093969;28;20060;-64
2021/10/07 06:20:44;;;;;;;37.90;20.95;;;;;;;12.31;76.84;101282.38;5096240;28;20051;-64
2021/10/07 06:23:11;;;;;;;40.65;20.55;;;;;;;12.38;77.02;101289.22;5091750;28;20521;-64
2021/10/07 06:25:39;;;;;;;37.42;19.63;;;;;;;12.53;76.87;101285.31;5095412;28;20063;-64
2021/10/07 06:28:08;;;;;;;41.42;21.75;;;;;;;12.65;76.07;101289.59;5112997;28;20485;-64
2021/10/07 06:30:37;;;;;;;34.73;20.20;;;;;;;12.68;75.96;101289.81;5099781;28;20067;-64
2021/10/07 06:33:04;;;;;;;38.22;20.85;;;;;;;12.80;75.94;101294.88;5095378;28;20402;-64
2021/10/07 06:35:32;;;;;;;34.88;19.90;;;;;;;12.88;76.05;101293.34;5091954;28;20105;-64
2021/10/07 06:37:59;;;;;;;39.45;20.48;;;;;;;12.90;75.63;101296.66;5092600;28;20055;-64
2021/10/07 06:40:26;;;;;;;36.45;19.92;;;;;;;12.98;75.83;101307.94;5092064;28;20474;-64
2021/10/07 06:42:54;;;;;;;38.22;21.75;;;;;;;13.07;75.76;101301.63;5106567;28;20062;-64
2021/10/07 06:45:21;;;;;;;31.85;19.40;;;;;;;13.19;75.57;101313.13;5111870;28;20044;-64
2021/10/07 06:47:50;;;;;;;32.80;20.58;;;;;;;13.28;75.15;101319.63;5112524;28;20051;-64
2021/10/07 06:50:17;;;;;;;32.53;19.30;;;;;;;13.28;74.94;101325.25;5092016;28;20417;-64
2021/10/07 06:52:45;;;;;;;30.85;18.75;;;;;;;13.39;75.33;101325.88;5091720;28;20443;-64
2021/10/07 06:55:12;;;;;;;34.20;20.13;;;;;;;13.49;75.20;101327.63;5091334;28;20052;-64
2021/10/07 06:57:41;;;;;;;36.97;20.27;;;;;;;13.53;75.36;101337.06;5091708;28;20052;-64
2021/10/07 07:00:10;;;;;;;37.72;21.17;;;;;;;13.61;75.11;101336.34;5094473;28;20052;-64
2021/10/07 07:02:37;;;;;;;46.22;23.67;;;;;;;13.68;74.42;101342.31;5107412;28;20060;-64
2021/10/07 07:05:08;;;;;;;37.95;21.30;;;;;;;13.79;74.45;101352.13;5097948;28;20482;-64
2021/10/07 07:07:36;;;;;;;45.13;22.35;;;;;;;13.92;74.10;101341.22;5102091;28;20052;-64
2021/10/07 07:10:04;;;;;;;43.55;22.73;;;;;;;13.97;73.65;101349.50;5096123;28;20052;-64
2021/10/07 07:12:31;;;;;;;45.80;24.77;;;;;;;14.04;73.29;101355.50;5093504;28;20394;-64
2021/10/07 07:14:59;;;;;;;53.40;25.55;;;;;;;14.10;73.25;101351.44;5098429;28;20094;-64
2021/10/07 07:17:26;;;;;;;56.40;25.85;;;;;;;14.09;72.52;101352.59;5093277;28;20511;-64
2021/10/07 07:19:53;;;;;;;54.28;26.80;;;;;;;14.13;72.24;101356.41;5094131;28;20055;-64
2021/10/07 07:22:22;;;;;;;52.00;26.10;;;;;;;14.25;72.13;101355.84;5090947;28;20063;-64
2021/10/07 07:24:49;;;;;;;54.47;25.30;;;;;;;14.41;71.80;101357.13;5091834;28;20511;-64
2021/10/07 07:27:17;;;;;;;47.03;24.73;;;;;;;14.57;70.91;101354.78;5091229;28;20060;-64
2021/10/07 07:29:44;;;;;;;44.42;23.40;;;;;;;14.80;70.22;101354.75;5092242;28;20059;-64
2021/10/07 07:32:12;;;;;;;45.90;24.00;;;;;;;15.21;68.82;101362.03;5093340;28;20496;-64
2021/10/07 07:34:39;;;;;;;41.42;23.92;;;;;;;15.64;68.04;101364.16;5090075;28;20048;-64
2021/10/07 07:37:06;;;;;;;40.55;22.88;;;;;;;15.98;66.71;101362.56;5094245;28;20062;-64
2021/10/07 07:39:36;;;;;;;42.92;22.77;;;;;;;16.22;66.30;101357.28;5093860;28;20406;-64
2021/10/07 07:42:04;;;;;;;40.38;21.77;;;;;;;16.39;65.56;101362.09;5090925;28;20528;-64
2021/10/07 07:44:31;;;;;;;35.95;22.10;;;;;;;16.61;64.09;101361.06;5094264;28;20044;-63
2021/10/07 07:46:58;;;;;;;35.35;21.23;;;;;;;16.75;63.90;101372.09;5093113;28;20403;-66
2021/10/07 07:49:26;;;;;;;34.88;20.25;;;;;;;17.08;63.50;101360.31;5094875;28;20060;-66
2021/10/07 07:51:53;;;;;;;35.90;21.65;;;;;;;17.37;62.37;101367.16;5090913;28;20052;-66
2021/10/07 07:54:21;;;;;;;33.42;20.83;;;;;;;17.46;62.00;101370.72;5092467;28;20048;-63
2021/10/07 07:56:52;;;;;;;32.28;21.10;;;;;;;17.63;61.50;101367.81;5094779;27;20067;-63
2021/10/07 07:59:19;;;;;;;34.20;20.52;;;;;;;17.74;60.71;101371.06;5101173;27;20414;-62
2021/10/07 08:01:48;;;;;;;28.17;19.05;;;;;;;17.79;60.40;101368.06;5101047;28;20060;-62
2021/10/07 08:04:16;;;;;;;28.80;18.63;;;;;;;17.76;60.91;101371.53;5106052;28;20141;-62
2021/10/07 08:06:46;;;;;;;32.75;19.48;;;;;;;17.92;59.52;101373.81;5104837;28;20047;-62
2021/10/07 08:09:13;;;;;;;;;;;;;;;17.82;58.51;101373.03;5107801;28;20051;-63
2021/10/07 08:11:40;;;;;;;27.23;16.95;;;;;;;17.72;59.37;101379.03;5098477;28;19920;-62
2021/10/07 08:14:10;;;;;;;22.00;16.48;;;;;;;17.68;59.36;101380.06;5092241;28;20082;-63
2021/10/07 08:16:38;;;;;;;22.15;15.80;;;;;;;17.69;59.89;101379.72;5100045;28;20405;-62
2021/10/07 08:19:06;;;;;;;21.63;15.98;;;;;;;17.76;59.84;101382.81;5093729;28;20052;-63
2021/10/07 08:21:33;;;;;;;21.30;14.05;;;;;;;17.68;58.95;101389.34;5113598;28;20062;-63
2021/10/07 08:24:05;;;;;;;18.00;13.93;;;;;;;17.71;60.19;101394.28;5108212;28;20398;-63
2021/10/07 08:26:33;;;;;;;15.40;12.20;;;;;;;17.90;57.36;101390.22;5108843;28;20060;-63
2021/10/07 08:29:00;;;;;;;12.57;8.98;;;;;;;17.64;56.36;101389.19;5112094;28;20067;-63
2021/10/07 08:31:29;;;;;;;12.00;9.68;;;;;;;17.45;56.00;101386.81;5108956;28;20056;-63
2021/10/07 08:33:57;;;;;;;12.43;9.55;;;;;;;17.68;55.76;101397.81;5109052;28;20056;-63
2021/10/07 08:36:24;;;;;;;9.77;7.90;;;;;;;17.88;54.30;101390.56;5109845;28;20688;-62
2021/10/07 08:38:51;;;;;;;9.98;7.85;;;;;;;18.39;53.00;101384.88;5109305;28;20063;-62
2021/10/07 08:41:20;;;;;;;9.25;6.78;;;;;;;18.91;51.50;101384.38;5110436;28;20051;-62
2021/10/07 08:43:53;;;;;;;9.20;7.03;;;;;;;19.55;49.56;101382.94;5096421;28;20052;-63
2021/10/07 08:46:21;;;;;;;8.68;6.47;;;;;;;19.57;49.09;101391.88;5094284;28;20043;-63
2021/10/07 08:48:51;;;;;;;8.52;6.70;;;;;;;19.62;49.28;101402.13;5108108;28;20052;-63
2021/10/07 08:51:19;;;;;;;8.13;7.10;;;;;;;19.61;48.99;101412.63;5106014;28;20059;-63
2021/10/07 08:53:47;;;;;;;7.88;6.30;;;;;;;19.38;48.29;101409.41;5097289;28;20070;-63
2021/10/07 08:56:14;;;;;;;9.82;7.10;;;;;;;19.42;48.44;101416.03;5093202;28;20486;-63
2021/10/07 08:58:42;;;;;;;12.10;6.93;;;;;;;19.79;48.78;101413.22;5091326;28;20358;-63
2021/10/07 09:01:36;;;;;;;7.38;6.32;;;;;;;19.94;47.11;101408.81;5098205;28;20059;-62
2021/10/07 09:04:19;;;;;;;8.88;6.60;;;;;;;19.91;46.48;101415.22;5093647;28;20062;-63
2021/10/07 09:06:47;;;;;;;7.05;5.70;;;;;;;20.22;46.19;101420.22;5100727;28;20067;-63
2021/10/07 09:09:15;;;;;;;6.90;5.53;;;;;;;20.22;45.81;101425.03;5106775;28;20052;-63
2021/10/07 09:11:43;;;;;;;7.95;7.10;;;;;;;19.88;46.67;101421.56;5094525;28;20056;-63
2021/10/07 09:14:13;;;;;;;9.75;6.63;;;;;;;19.95;46.75;101426.63;5090397;28;20052;-63
2021/10/07 09:16:44;;;;;;;8.40;7.00;;;;;;;19.90;46.56;101424.84;5095958;28;20062;-62
2021/10/07 09:19:21;;;;;;;8.85;7.00;;;;;;;19.80;46.39;101428.16;5108970;28;20052;-62
2021/10/07 09:21:50;;;;;;;6.93;6.22;;;;;;;19.73;46.87;101420.28;5100240;28;20062;-62
2021/10/07 09:24:32;;;;;;;7.85;6.63;;;;;;;19.57;47.58;101413.66;5093519;28;20524;-62
2021/10/07 09:27:05;;;;;;;8.88;6.50;;;;;;;19.93;46.74;101423.31;5102093;28;20055;-62
2021/10/07 09:29:36;;;;;;;7.68;6.25;;;;;;;20.06;46.82;101424.97;5100562;28;20558;-62
2021/10/07 09:32:05;;;;;;;6.45;5.75;;;;;;;19.85;47.08;101437.25;5098824;28;20058;-62
2021/10/07 09:34:41;;;;;;;;;;;;;;;19.48;47.76;101423.06;5094436;28;20056;-62
2021/10/07 09:37:39;;;;;;;10.20;6.38;;;;;;;21.20;44.63;101423.81;5100858;28;20391;-62
2021/10/07 09:40:09;;;;;;;9.23;6.25;;;;;;;20.91;44.79;101427.88;5091490;28;20505;-62
2021/10/07 09:42:39;;;;;;;6.50;5.80;;;;;;;23.48;40.21;101420.78;5095146;28;20066;-62
2021/10/07 09:45:13;;;;;;;6.40;5.70;;;;;;;25.76;35.51;101418.38;5110774;28;20517;-62
2021/10/07 09:47:43;;;;;;;6.43;5.82;;;;;;;27.75;31.15;101407.25;5089989;28;20086;-62
2021/10/07 09:50:20;;;;;;;6.28;5.15;;;;;;;30.18;27.61;101410.00;5093910;28;20067;-62
2021/10/07 09:52:50;;;;;;;5.60;5.10;;;;;;;30.62;26.72;101413.22;5091075;28;20067;-63
2021/10/07 09:55:19;;;;;;;4.75;4.32;;;;;;;31.14;26.07;101412.88;5090772;28;20055;-63
2021/10/07 09:57:51;;;;;;;5.30;4.80;;;;;;;31.98;24.13;101416.03;5095221;28;20429;-62
2021/10/07 10:00:19;;;;;;;5.30;4.40;;;;;;;32.39;23.72;101414.84;5090730;28;20056;-62
2021/10/07 10:02:47;;;;;;;5.00;4.50;;;;;;;32.58;22.52;101422.69;5099898;28;20056;-63
2021/10/07 10:05:16;;;;;;;4.93;4.43;;;;;;;32.39;23.24;101432.16;5102245;28;20059;-62
2021/10/07 10:07:44;;;;;;;4.63;4.20;;;;;;;31.80;23.89;101431.56;5109187;28;20409;-62
2021/10/07 10:10:14;;;;;;;4.60;4.20;;;;;;;32.49;23.38;101423.28;5095322;28;20064;-62
2021/10/07 10:12:42;;;;;;;4.28;3.85;;;;;;;33.52;22.51;101421.38;5093840;28;20391;-62
2021/10/07 10:15:11;;;;;;;4.32;3.92;;;;;;;34.03;20.81;101429.56;5090034;28;20059;-62
2021/10/07 10:17:38;;;;;;;;;;;;;;;35.19;20.14;101430.75;5091733;28;20059;-62
2021/10/07 10:20:09;;;;;;;4.03;3.65;;;;;;;34.82;19.76;101428.16;5106176;28;19919;-62
2021/10/07 10:22:38;;;;;;;4.72;3.20;;;;;;;33.50;21.62;101423.91;5098885;28;20051;-61
2021/10/07 10:25:06;;;;;;;3.67;3.38;;;;;;;36.11;19.30;101425.94;5101331;28;20051;-62
2021/10/07 10:28:03;;;;;;;4.18;3.80;;;;;;;36.72;18.26;101418.72;5092687;28;20533;-62
2021/10/07 10:30:33;;;;;;;4.43;4.03;;;;;;;35.34;19.42;101423.19;5094435;28;20425;-62
2021/10/07 10:33:02;;;;;;;4.20;3.80;;;;;;;35.97;18.58;101428.09;5093663;28;20056;-61
2021/10/07 10:35:31;;;;;;;4.43;4.03;;;;;;;37.10;17.94;101435.06;5090793;28;20463;-61
2021/10/07 10:38:02;;;;;;;4.10;3.80;;;;;;;38.58;17.33;101426.63;5091134;28;20051;-62
2021/10/07 10:40:31;;;;;;;4.93;4.32;;;;;;;39.83;15.77;101428.38;5092606;28;20078;-62
2021/10/07 10:43:22;;;;;;;5.45;4.35;;;;;;;41.09;14.93;101418.59;5091582;28;20067;-62
2021/10/07 10:46:10;;;;;;;4.90;4.40;;;;;;;41.58;14.68;101419.91;5089754;28;20067;-62
2021/10/07 10:49:01;;;;;;;5.20;4.70;;;;;;;41.62;14.83;101419.69;5090711;28;20551;-62
2021/10/07 10:51:34;;;;;;;4.68;4.28;;;;;;;41.84;14.59;101420.00;5094816;28;20067;-62
2021/10/07 10:54:10;;;;;;;4.63;4.22;;;;;;;42.70;13.80;101420.47;5089279;28;20147;-62
2021/10/07 10:57:01;;;;;;;3.83;3.53;;;;;;;42.78;13.35;101424.53;5090374;28;20048;-62
2021/10/07 10:59:30;;;;;;;4.53;4.13;;;;;;;43.02;12.86;101429.28;5073125;28;20059;-62
2021/10/07 11:02:31;;;;;;;3.92;3.63;;;;;;;43.30;12.59;101428.72;5089356;28;20111;-62
2021/10/07 11:04:59;;;;;;;3.95;3.65;;;;;;;43.18;12.55;101440.34;5006484;28;20065;-62
2021/10/07 11:07:33;;;;;;;4.45;4.05;;;;;;;42.87;12.67;101434.50;5008246;28;20066;-62
2021/10/07 11:10:09;;;;;;;4.13;3.80;;;;;;;41.29;13.85;101439.16;5048440;28;20446;-62
2021/10/07 11:12:47;;;;;;;4.03;3.63;;;;;;;42.51;13.53;101430.94;5087008;28;20052;-63
2021/10/07 11:15:15;;;;;;;4.30;3.90;;;;;;;43.30;12.42;101434.56;5093051;28;20048;-62
2021/10/07 11:17:43;;;;;;;;;;;;;;;42.59;13.25;101432.09;5090394;28;20048;-62
2021/10/07 11:20:13;;;;;;;4.07;3.50;;;;;;;42.64;12.78;101428.41;5091894;28;19927;-62
2021/10/07 11:22:56;;;;;;;3.95;3.60;;;;;;;41.13;14.01;101427.97;5104764;28;20055;-62
2021/10/07 11:25:24;;;;;;;3.65;3.35;;;;;;;40.77;14.51;101432.94;5107639;28;20062;-62